sensor_id;sensor_type;location;lat;lon;timestamp;P1;durP1;ratioP1;P2;durP2;ratioP2
53036;SDS011;38924;52.134;4.666;2022-08-19T00:00:16;462.67;;;428.15;;
53036;SDS011;38924;52.134;4.666;2022-08-19T00:02:44;445.42;;;412.20;;
53036;SDS011;38924;52.134;4.666;2022-08-19T00:05:11;391.40;;;363.65;;
53036;SDS011;38924;52.134;4.666;2022-08-19T00:07:38;387.15;;;359.83;;
53036;SDS011;38924;52.134;4.666;2022-08-19T00:10:05;428.95;;;398.38;;
53036;SDS011;38924;52.134;4.666;2022-08-19T00:12:31;357.23;;;331.63;;
53036;SDS011;38924;52.134;4.666;2022-08-19T00:14:58;361.00;;;335.73;;
53036;SDS011;38924;52.134;4.666;2022-08-19T00:17:24;413.98;;;384.70;;
53036;SDS011;38924;52.134;4.666;2022-08-19T00:19:49;381.05;;;354.58;;
53036;SDS011;38924;52.134;4.666;2022-08-19T00:22:15;397.33;;;368.75;;
53036;SDS011;38924;52.134;4.666;2022-08-19T00:24:43;381.67;;;355.55;;
53036;SDS011;38924;52.134;4.666;2022-08-19T00:27:09;390.48;;;364.17;;
53036;SDS011;38924;52.134;4.666;2022-08-19T00:29:35;384.15;;;357.52;;
53036;SDS011;38924;52.134;4.666;2022-08-19T00:32:01;378.40;;;352.50;;
53036;SDS011;38924;52.134;4.666;2022-08-19T00:34:27;366.13;;;341.27;;
53036;SDS011;38924;52.134;4.666;2022-08-19T00:36:54;389.88;;;363.25;;
53036;SDS011;38924;52.134;4.666;2022-08-19T00:39:20;373.55;;;347.67;;
53036;SDS011;38924;52.134;4.666;2022-08-19T00:41:47;366.38;;;340.85;;
53036;SDS011;38924;52.134;4.666;2022-08-19T00:44:23;349.90;;;326.48;;
53036;SDS011;38924;52.134;4.666;2022-08-19T00:46:50;367.05;;;342.23;;
53036;SDS011;38924;52.134;4.666;2022-08-19T00:49:21;338.80;;;316.05;;
53036;SDS011;38924;52.134;4.666;2022-08-19T00:51:48;372.17;;;346.33;;
53036;SDS011;38924;52.134;4.666;2022-08-19T00:54:15;367.10;;;342.15;;
53036;SDS011;38924;52.134;4.666;2022-08-19T00:56:41;401.27;;;373.52;;
53036;SDS011;38924;52.134;4.666;2022-08-19T00:59:07;355.30;;;331.45;;
53036;SDS011;38924;52.134;4.666;2022-08-19T01:01:36;378.38;;;352.58;;
53036;SDS011;38924;52.134;4.666;2022-08-19T01:04:02;371.17;;;345.73;;
53036;SDS011;38924;52.134;4.666;2022-08-19T01:06:27;391.27;;;363.58;;
53036;SDS011;38924;52.134;4.666;2022-08-19T01:08:53;375.75;;;349.55;;
53036;SDS011;38924;52.134;4.666;2022-08-19T01:11:19;369.23;;;343.45;;
53036;SDS011;38924;52.134;4.666;2022-08-19T01:13:45;382.98;;;355.40;;
53036;SDS011;38924;52.134;4.666;2022-08-19T01:16:14;340.00;;;316.17;;
53036;SDS011;38924;52.134;4.666;2022-08-19T01:18:42;391.65;;;363.60;;
53036;SDS011;38924;52.134;4.666;2022-08-19T01:23:43;333.40;;;310.50;;
53036;SDS011;38924;52.134;4.666;2022-08-19T01:26:11;386.98;;;359.48;;
53036;SDS011;38924;52.134;4.666;2022-08-19T01:28:38;403.13;;;374.33;;
53036;SDS011;38924;52.134;4.666;2022-08-19T01:31:04;326.48;;;304.27;;
53036;SDS011;38924;52.134;4.666;2022-08-19T01:33:29;384.20;;;357.63;;
53036;SDS011;38924;52.134;4.666;2022-08-19T01:36:15;422.30;;;392.52;;
53036;SDS011;38924;52.134;4.666;2022-08-19T01:38:42;387.60;;;360.17;;
53036;SDS011;38924;52.134;4.666;2022-08-19T01:41:09;374.38;;;348.55;;
53036;SDS011;38924;52.134;4.666;2022-08-19T01:43:38;349.83;;;325.67;;
53036;SDS011;38924;52.134;4.666;2022-08-19T01:46:04;354.33;;;329.23;;
53036;SDS011;38924;52.134;4.666;2022-08-19T01:48:37;374.60;;;348.73;;
53036;SDS011;38924;52.134;4.666;2022-08-19T01:51:03;354.07;;;330.40;;
53036;SDS011;38924;52.134;4.666;2022-08-19T01:53:29;374.20;;;347.63;;
53036;SDS011;38924;52.134;4.666;2022-08-19T01:55:55;373.95;;;348.20;;
53036;SDS011;38924;52.134;4.666;2022-08-19T01:58:23;388.33;;;360.52;;
53036;SDS011;38924;52.134;4.666;2022-08-19T02:00:49;408.73;;;380.23;;
53036;SDS011;38924;52.134;4.666;2022-08-19T02:03:15;394.02;;;366.30;;
53036;SDS011;38924;52.134;4.666;2022-08-19T02:05:41;402.27;;;373.98;;
53036;SDS011;38924;52.134;4.666;2022-08-19T02:08:07;389.17;;;361.77;;
53036;SDS011;38924;52.134;4.666;2022-08-19T02:10:40;413.02;;;383.45;;
53036;SDS011;38924;52.134;4.666;2022-08-19T02:13:06;342.17;;;317.95;;
53036;SDS011;38924;52.134;4.666;2022-08-19T02:15:32;367.50;;;342.42;;
53036;SDS011;38924;52.134;4.666;2022-08-19T02:17:58;400.83;;;372.65;;
53036;SDS011;38924;52.134;4.666;2022-08-19T02:20:23;379.73;;;353.13;;
53036;SDS011;38924;52.134;4.666;2022-08-19T02:22:49;360.52;;;335.60;;
53036;SDS011;38924;52.134;4.666;2022-08-19T02:25:15;393.75;;;366.67;;
53036;SDS011;38924;52.134;4.666;2022-08-19T02:27:43;367.65;;;342.05;;
53036;SDS011;38924;52.134;4.666;2022-08-19T02:30:11;385.42;;;357.90;;
53036;SDS011;38924;52.134;4.666;2022-08-19T02:32:39;391.15;;;363.80;;
53036;SDS011;38924;52.134;4.666;2022-08-19T02:35:05;398.48;;;370.35;;
53036;SDS011;38924;52.134;4.666;2022-08-19T02:37:31;398.40;;;369.85;;
53036;SDS011;38924;52.134;4.666;2022-08-19T02:40:15;306.63;;;285.67;;
53036;SDS011;38924;52.134;4.666;2022-08-19T02:42:43;407.80;;;378.40;;
53036;SDS011;38924;52.134;4.666;2022-08-19T02:45:10;377.95;;;351.17;;
53036;SDS011;38924;52.134;4.666;2022-08-19T02:47:36;356.92;;;332.05;;
53036;SDS011;38924;52.134;4.666;2022-08-19T02:50:02;378.88;;;352.67;;
53036;SDS011;38924;52.134;4.666;2022-08-19T02:52:29;392.95;;;365.30;;
53036;SDS011;38924;52.134;4.666;2022-08-19T02:54:54;371.60;;;345.90;;
53036;SDS011;38924;52.134;4.666;2022-08-19T02:57:23;368.60;;;343.05;;
53036;SDS011;38924;52.134;4.666;2022-08-19T02:59:51;406.98;;;378.08;;
53036;SDS011;38924;52.134;4.666;2022-08-19T03:02:17;406.10;;;377.40;;
53036;SDS011;38924;52.134;4.666;2022-08-19T03:04:43;402.92;;;372.83;;
53036;SDS011;38924;52.134;4.666;2022-08-19T03:07:09;424.60;;;393.50;;
53036;SDS011;38924;52.134;4.666;2022-08-19T03:09:36;404.20;;;376.17;;
53036;SDS011;38924;52.134;4.666;2022-08-19T03:12:02;391.60;;;363.38;;
53036;SDS011;38924;52.134;4.666;2022-08-19T03:14:30;403.83;;;375.52;;
53036;SDS011;38924;52.134;4.666;2022-08-19T03:16:55;387.77;;;360.33;;
53036;SDS011;38924;52.134;4.666;2022-08-19T03:19:21;413.67;;;384.27;;
53036;SDS011;38924;52.134;4.666;2022-08-19T03:21:47;377.48;;;351.35;;
53036;SDS011;38924;52.134;4.666;2022-08-19T03:24:13;350.90;;;326.42;;
53036;SDS011;38924;52.134;4.666;2022-08-19T03:26:40;401.63;;;372.60;;
53036;SDS011;38924;52.134;4.666;2022-08-19T03:29:07;389.52;;;361.85;;
53036;SDS011;38924;52.134;4.666;2022-08-19T03:31:34;415.52;;;386.00;;
53036;SDS011;38924;52.134;4.666;2022-08-19T03:34:00;413.10;;;383.60;;
53036;SDS011;38924;52.134;4.666;2022-08-19T03:36:26;380.75;;;353.95;;
53036;SDS011;38924;52.134;4.666;2022-08-19T03:38:53;393.23;;;365.08;;
53036;SDS011;38924;52.134;4.666;2022-08-19T03:41:21;378.17;;;350.95;;
53036;SDS011;38924;52.134;4.666;2022-08-19T03:43:47;344.52;;;319.73;;
53036;SDS011;38924;52.134;4.666;2022-08-19T03:46:16;387.90;;;360.05;;
53036;SDS011;38924;52.134;4.666;2022-08-19T03:48:42;353.42;;;328.35;;
53036;SDS011;38924;52.134;4.666;2022-08-19T03:51:15;352.55;;;327.95;;
53036;SDS011;38924;52.134;4.666;2022-08-19T03:53:41;381.42;;;354.65;;
53036;SDS011;38924;52.134;4.666;2022-08-19T03:56:08;340.23;;;316.42;;
53036;SDS011;38924;52.134;4.666;2022-08-19T03:58:34;366.88;;;339.20;;
53036;SDS011;38924;52.134;4.666;2022-08-19T04:00:59;344.75;;;319.27;;
53036;SDS011;38924;52.134;4.666;2022-08-19T04:03:25;354.45;;;329.55;;
53036;SDS011;38924;52.134;4.666;2022-08-19T04:05:52;348.38;;;324.15;;
53036;SDS011;38924;52.134;4.666;2022-08-19T04:08:19;320.77;;;298.50;;
53036;SDS011;38924;52.134;4.666;2022-08-19T04:10:48;340.48;;;316.85;;
53036;SDS011;38924;52.134;4.666;2022-08-19T04:13:17;335.10;;;311.50;;
53036;SDS011;38924;52.134;4.666;2022-08-19T04:15:43;323.38;;;300.17;;
53036;SDS011;38924;52.134;4.666;2022-08-19T04:18:09;343.05;;;319.10;;
53036;SDS011;38924;52.134;4.666;2022-08-19T04:20:43;316.98;;;294.70;;
53036;SDS011;38924;52.134;4.666;2022-08-19T04:23:08;327.17;;;303.80;;
53036;SDS011;38924;52.134;4.666;2022-08-19T04:25:35;336.92;;;313.35;;
53036;SDS011;38924;52.134;4.666;2022-08-19T04:28:01;334.70;;;310.75;;
53036;SDS011;38924;52.134;4.666;2022-08-19T04:30:26;310.13;;;287.70;;
53036;SDS011;38924;52.134;4.666;2022-08-19T04:32:52;335.52;;;311.55;;
53036;SDS011;38924;52.134;4.666;2022-08-19T04:35:18;336.25;;;311.85;;
53036;SDS011;38924;52.134;4.666;2022-08-19T04:37:43;312.92;;;290.45;;
53036;SDS011;38924;52.134;4.666;2022-08-19T04:40:09;317.83;;;294.20;;
53036;SDS011;38924;52.134;4.666;2022-08-19T04:45:19;306.83;;;283.88;;
53036;SDS011;38924;52.134;4.666;2022-08-19T04:47:48;312.20;;;289.50;;
53036;SDS011;38924;52.134;4.666;2022-08-19T04:50:14;345.60;;;319.65;;
53036;SDS011;38924;52.134;4.666;2022-08-19T04:52:39;342.90;;;317.92;;
53036;SDS011;38924;52.134;4.666;2022-08-19T04:55:10;320.55;;;297.10;;
53036;SDS011;38924;52.134;4.666;2022-08-19T04:57:36;345.13;;;319.50;;
53036;SDS011;38924;52.134;4.666;2022-08-19T05:00:08;354.95;;;328.60;;
53036;SDS011;38924;52.134;4.666;2022-08-19T05:02:34;349.67;;;323.55;;
53036;SDS011;38924;52.134;4.666;2022-08-19T05:05:00;360.10;;;333.10;;
53036;SDS011;38924;52.134;4.666;2022-08-19T05:07:29;376.88;;;348.05;;
53036;SDS011;38924;52.134;4.666;2022-08-19T05:09:54;353.08;;;326.90;;
53036;SDS011;38924;52.134;4.666;2022-08-19T05:12:20;380.08;;;351.23;;
53036;SDS011;38924;52.134;4.666;2022-08-19T05:14:46;342.75;;;317.20;;
53036;SDS011;38924;52.134;4.666;2022-08-19T05:17:13;384.92;;;355.85;;
53036;SDS011;38924;52.134;4.666;2022-08-19T05:19:38;368.23;;;339.83;;
53036;SDS011;38924;52.134;4.666;2022-08-19T05:22:40;341.38;;;314.60;;
53036;SDS011;38924;52.134;4.666;2022-08-19T05:25:10;369.58;;;340.88;;
53036;SDS011;38924;52.134;4.666;2022-08-19T05:27:37;351.17;;;323.33;;
53036;SDS011;38924;52.134;4.666;2022-08-19T05:30:03;355.48;;;327.13;;
53036;SDS011;38924;52.134;4.666;2022-08-19T05:32:30;378.17;;;348.33;;
53036;SDS011;38924;52.134;4.666;2022-08-19T05:34:58;392.13;;;361.17;;
53036;SDS011;38924;52.134;4.666;2022-08-19T05:37:25;370.60;;;341.73;;
53036;SDS011;38924;52.134;4.666;2022-08-19T05:39:53;397.85;;;366.33;;
53036;SDS011;38924;52.134;4.666;2022-08-19T05:42:19;394.63;;;363.63;;
53036;SDS011;38924;52.134;4.666;2022-08-19T05:44:46;406.45;;;374.17;;
53036;SDS011;38924;52.134;4.666;2022-08-19T05:47:15;417.60;;;383.90;;
53036;SDS011;38924;52.134;4.666;2022-08-19T05:49:43;408.83;;;376.45;;
53036;SDS011;38924;52.134;4.666;2022-08-19T05:52:10;395.35;;;363.38;;
53036;SDS011;38924;52.134;4.666;2022-08-19T05:54:37;424.33;;;391.33;;
53036;SDS011;38924;52.134;4.666;2022-08-19T05:57:05;416.35;;;382.95;;
53036;SDS011;38924;52.134;4.666;2022-08-19T05:59:31;405.85;;;374.02;;
53036;SDS011;38924;52.134;4.666;2022-08-19T06:02:01;432.13;;;398.27;;
53036;SDS011;38924;52.134;4.666;2022-08-19T06:04:27;374.38;;;344.10;;
53036;SDS011;38924;52.134;4.666;2022-08-19T06:06:53;455.92;;;419.73;;
53036;SDS011;38924;52.134;4.666;2022-08-19T06:09:19;407.58;;;374.95;;
53036;SDS011;38924;52.134;4.666;2022-08-19T06:11:46;434.63;;;401.33;;
53036;SDS011;38924;52.134;4.666;2022-08-19T06:14:14;479.67;;;441.30;;
53036;SDS011;38924;52.134;4.666;2022-08-19T06:16:40;469.25;;;432.23;;
53036;SDS011;38924;52.134;4.666;2022-08-19T06:19:08;413.33;;;380.70;;
53036;SDS011;38924;52.134;4.666;2022-08-19T06:21:35;429.30;;;395.25;;
53036;SDS011;38924;52.134;4.666;2022-08-19T06:24:05;429.30;;;395.92;;
53036;SDS011;38924;52.134;4.666;2022-08-19T06:26:32;464.83;;;428.60;;
53036;SDS011;38924;52.134;4.666;2022-08-19T06:28:58;452.33;;;417.05;;
53036;SDS011;38924;52.134;4.666;2022-08-19T06:31:25;471.70;;;434.73;;
53036;SDS011;38924;52.134;4.666;2022-08-19T06:33:53;452.65;;;417.48;;
53036;SDS011;38924;52.134;4.666;2022-08-19T06:36:29;412.98;;;381.40;;
53036;SDS011;38924;52.134;4.666;2022-08-19T06:38:57;448.73;;;413.40;;
53036;SDS011;38924;52.134;4.666;2022-08-19T06:41:26;420.25;;;388.02;;
53036;SDS011;38924;52.134;4.666;2022-08-19T06:43:54;498.88;;;460.15;;
53036;SDS011;38924;52.134;4.666;2022-08-19T06:46:19;446.58;;;413.00;;
53036;SDS011;38924;52.134;4.666;2022-08-19T06:48:45;523.47;;;483.02;;
53036;SDS011;38924;52.134;4.666;2022-08-19T06:51:12;470.85;;;434.17;;
53036;SDS011;38924;52.134;4.666;2022-08-19T06:53:41;520.72;;;481.73;;
53036;SDS011;38924;52.134;4.666;2022-08-19T06:56:11;476.50;;;439.88;;
53036;SDS011;38924;52.134;4.666;2022-08-19T06:58:40;467.45;;;431.02;;
53036;SDS011;38924;52.134;4.666;2022-08-19T07:01:06;520.10;;;480.30;;
53036;SDS011;38924;52.134;4.666;2022-08-19T07:03:32;498.10;;;460.33;;
53036;SDS011;38924;52.134;4.666;2022-08-19T07:06:15;529.05;;;488.67;;
53036;SDS011;38924;52.134;4.666;2022-08-19T07:08:43;462.77;;;427.67;;
53036;SDS011;38924;52.134;4.666;2022-08-19T07:11:10;554.15;;;510.55;;
53036;SDS011;38924;52.134;4.666;2022-08-19T07:13:36;603.35;;;557.00;;
53036;SDS011;38924;52.134;4.666;2022-08-19T07:16:09;577.83;;;533.63;;
53036;SDS011;38924;52.134;4.666;2022-08-19T07:18:35;568.40;;;524.05;;
53036;SDS011;38924;52.134;4.666;2022-08-19T07:21:18;558.85;;;515.90;;
53036;SDS011;38924;52.134;4.666;2022-08-19T07:23:45;540.60;;;499.55;;
53036;SDS011;38924;52.134;4.666;2022-08-19T07:28:39;584.53;;;538.83;;
53036;SDS011;38924;52.134;4.666;2022-08-19T07:31:10;609.53;;;561.88;;
53036;SDS011;38924;52.134;4.666;2022-08-19T07:33:36;645.10;;;594.85;;
53036;SDS011;38924;52.134;4.666;2022-08-19T07:36:05;662.38;;;610.85;;
53036;SDS011;38924;52.134;4.666;2022-08-19T07:38:31;526.90;;;486.42;;
53036;SDS011;38924;52.134;4.666;2022-08-19T07:40:57;737.08;;;677.60;;
53036;SDS011;38924;52.134;4.666;2022-08-19T07:43:23;593.92;;;547.42;;
53036;SDS011;38924;52.134;4.666;2022-08-19T07:45:51;614.58;;;566.22;;
53036;SDS011;38924;52.134;4.666;2022-08-19T07:48:18;629.60;;;579.50;;
53036;SDS011;38924;52.134;4.666;2022-08-19T07:50:45;670.13;;;616.13;;
53036;SDS011;38924;52.134;4.666;2022-08-19T07:53:10;627.65;;;578.08;;
53036;SDS011;38924;52.134;4.666;2022-08-19T07:55:40;669.45;;;615.45;;
53036;SDS011;38924;52.134;4.666;2022-08-19T07:58:06;666.45;;;612.67;;
53036;SDS011;38924;52.134;4.666;2022-08-19T08:00:32;709.85;;;651.67;;
53036;SDS011;38924;52.134;4.666;2022-08-19T08:02:59;663.55;;;606.88;;
53036;SDS011;38924;52.134;4.666;2022-08-19T08:05:25;678.08;;;621.20;;
53036;SDS011;38924;52.134;4.666;2022-08-19T08:08:09;758.53;;;695.08;;
53036;SDS011;38924;52.134;4.666;2022-08-19T08:11:07;647.58;;;594.55;;
53036;SDS011;38924;52.134;4.666;2022-08-19T08:13:32;727.65;;;667.75;;
53036;SDS011;38924;52.134;4.666;2022-08-19T08:16:01;806.20;;;736.83;;
53036;SDS011;38924;52.134;4.666;2022-08-19T08:18:27;811.80;;;742.08;;
53036;SDS011;38924;52.134;4.666;2022-08-19T08:20:53;706.78;;;649.00;;
53036;SDS011;38924;52.134;4.666;2022-08-19T08:23:19;842.50;;;771.40;;
53036;SDS011;38924;52.134;4.666;2022-08-19T08:25:47;699.42;;;639.17;;
53036;SDS011;38924;52.134;4.666;2022-08-19T08:28:14;791.30;;;723.97;;
53036;SDS011;38924;52.134;4.666;2022-08-19T08:30:40;638.17;;;585.58;;
53036;SDS011;38924;52.134;4.666;2022-08-19T08:33:07;673.72;;;618.03;;
53036;SDS011;38924;52.134;4.666;2022-08-19T08:35:33;675.88;;;620.25;;
53036;SDS011;38924;52.134;4.666;2022-08-19T08:37:59;746.05;;;682.95;;
53036;SDS011;38924;52.134;4.666;2022-08-19T08:42:55;657.13;;;603.65;;
53036;SDS011;38924;52.134;4.666;2022-08-19T08:45:25;756.65;;;692.58;;
53036;SDS011;38924;52.134;4.666;2022-08-19T08:47:55;666.40;;;611.75;;
53036;SDS011;38924;52.134;4.666;2022-08-19T08:50:33;679.72;;;623.15;;
53036;SDS011;38924;52.134;4.666;2022-08-19T08:53:06;785.67;;;718.40;;
53036;SDS011;38924;52.134;4.666;2022-08-19T08:55:33;736.22;;;675.30;;
53036;SDS011;38924;52.134;4.666;2022-08-19T09:00:32;681.35;;;625.85;;
53036;SDS011;38924;52.134;4.666;2022-08-19T09:02:58;723.28;;;663.65;;
53036;SDS011;38924;52.134;4.666;2022-08-19T09:05:30;681.45;;;623.83;;
53036;SDS011;38924;52.134;4.666;2022-08-19T09:08:45;724.07;;;660.43;;
53036;SDS011;38924;52.134;4.666;2022-08-19T09:10:55;825.90;;;752.75;;
53036;SDS011;38924;52.134;4.666;2022-08-19T09:13:46;850.38;;;770.63;;
53036;SDS011;38924;52.134;4.666;2022-08-19T09:16:11;743.08;;;675.25;;
53036;SDS011;38924;52.134;4.666;2022-08-19T09:18:50;798.50;;;726.53;;
53036;SDS011;38924;52.134;4.666;2022-08-19T09:21:18;830.78;;;752.08;;
53036;SDS011;38924;52.134;4.666;2022-08-19T09:23:44;901.30;;;813.17;;
53036;SDS011;38924;52.134;4.666;2022-08-19T09:26:11;935.00;;;841.53;;
53036;SDS011;38924;52.134;4.666;2022-08-19T09:28:41;856.53;;;771.55;;
53036;SDS011;38924;52.134;4.666;2022-08-19T09:31:10;922.03;;;827.22;;
53036;SDS011;38924;52.134;4.666;2022-08-19T09:33:36;924.78;;;830.80;;
53036;SDS011;38924;52.134;4.666;2022-08-19T09:36:03;947.85;;;848.40;;
53036;SDS011;38924;52.134;4.666;2022-08-19T09:38:29;912.92;;;819.00;;
53036;SDS011;38924;52.134;4.666;2022-08-19T09:40:55;892.58;;;805.13;;
53036;SDS011;38924;52.134;4.666;2022-08-19T09:43:20;938.50;;;845.08;;
53036;SDS011;38924;52.134;4.666;2022-08-19T09:45:46;968.53;;;870.83;;
53036;SDS011;38924;52.134;4.666;2022-08-19T09:48:15;914.30;;;824.95;;
53036;SDS011;38924;52.134;4.666;2022-08-19T09:50:41;946.78;;;850.85;;
53036;SDS011;38924;52.134;4.666;2022-08-19T09:53:07;857.85;;;773.80;;
53036;SDS011;38924;52.134;4.666;2022-08-19T09:55:33;933.28;;;834.83;;
53036;SDS011;38924;52.134;4.666;2022-08-19T09:58:01;913.30;;;820.75;;
53036;SDS011;38924;52.134;4.666;2022-08-19T10:00:27;822.13;;;744.20;;
53036;SDS011;38924;52.134;4.666;2022-08-19T10:02:53;816.22;;;738.28;;
53036;SDS011;38924;52.134;4.666;2022-08-19T10:05:19;864.08;;;780.63;;
53036;SDS011;38924;52.134;4.666;2022-08-19T10:08:04;904.42;;;816.78;;
53036;SDS011;38924;52.134;4.666;2022-08-19T10:10:30;799.83;;;725.15;;
53036;SDS011;38924;52.134;4.666;2022-08-19T10:13:00;884.97;;;801.88;;
53036;SDS011;38924;52.134;4.666;2022-08-19T10:15:25;872.83;;;787.65;;
53036;SDS011;38924;52.134;4.666;2022-08-19T10:17:51;836.67;;;753.33;;
53036;SDS011;38924;52.134;4.666;2022-08-19T10:20:17;786.88;;;711.80;;
53036;SDS011;38924;52.134;4.666;2022-08-19T10:22:43;861.30;;;777.80;;
53036;SDS011;38924;52.134;4.666;2022-08-19T10:25:09;815.83;;;738.95;;
53036;SDS011;38924;52.134;4.666;2022-08-19T10:27:35;860.03;;;778.38;;
53036;SDS011;38924;52.134;4.666;2022-08-19T10:30:03;853.83;;;773.25;;
53036;SDS011;38924;52.134;4.666;2022-08-19T10:32:28;751.03;;;679.75;;
53036;SDS011;38924;52.134;4.666;2022-08-19T10:34:54;927.20;;;836.58;;
53036;SDS011;38924;52.134;4.666;2022-08-19T10:37:21;953.15;;;859.58;;
53036;SDS011;38924;52.134;4.666;2022-08-19T10:39:47;895.95;;;810.75;;
53036;SDS011;38924;52.134;4.666;2022-08-19T10:42:14;885.92;;;800.70;;
53036;SDS011;38924;52.134;4.666;2022-08-19T10:44:41;837.75;;;756.25;;
53036;SDS011;38924;52.134;4.666;2022-08-19T10:47:07;852.72;;;769.42;;
53036;SDS011;38924;52.134;4.666;2022-08-19T10:49:32;875.05;;;787.67;;
53036;SDS011;38924;52.134;4.666;2022-08-19T10:52:18;885.83;;;796.95;;
53036;SDS011;38924;52.134;4.666;2022-08-19T10:54:59;922.45;;;828.80;;
53036;SDS011;38924;52.134;4.666;2022-08-19T10:57:56;952.45;;;853.70;;
53036;SDS011;38924;52.134;4.666;2022-08-19T11:00:23;939.30;;;844.50;;
53036;SDS011;38924;52.134;4.666;2022-08-19T11:02:52;945.42;;;847.35;;
53036;SDS011;38924;52.134;4.666;2022-08-19T11:05:17;940.63;;;843.38;;
53036;SDS011;38924;52.134;4.666;2022-08-19T11:07:47;952.10;;;852.80;;
53036;SDS011;38924;52.134;4.666;2022-08-19T11:10:16;1030.43;;;918.45;;
53036;SDS011;38924;52.134;4.666;2022-08-19T11:12:44;958.55;;;858.03;;
53036;SDS011;38924;52.134;4.666;2022-08-19T11:15:11;1005.40;;;895.55;;
53036;SDS011;38924;52.134;4.666;2022-08-19T11:17:38;1081.60;;;950.33;;
53036;SDS011;38924;52.134;4.666;2022-08-19T11:20:13;969.97;;;869.53;;
53036;SDS011;38924;52.134;4.666;2022-08-19T11:22:47;1004.33;;;898.13;;
53036;SDS011;38924;52.134;4.666;2022-08-19T11:25:12;1066.80;;;949.75;;
53036;SDS011;38924;52.134;4.666;2022-08-19T11:27:39;1008.13;;;899.03;;
53036;SDS011;38924;52.134;4.666;2022-08-19T11:30:07;1060.30;;;944.63;;
53036;SDS011;38924;52.134;4.666;2022-08-19T11:32:33;1092.05;;;963.05;;
53036;SDS011;38924;52.134;4.666;2022-08-19T11:34:59;1043.22;;;927.38;;
53036;SDS011;38924;52.134;4.666;2022-08-19T11:37:25;974.80;;;871.00;;
53036;SDS011;38924;52.134;4.666;2022-08-19T11:39:53;945.70;;;848.72;;
53036;SDS011;38924;52.134;4.666;2022-08-19T11:42:20;1047.70;;;933.15;;
53036;SDS011;38924;52.134;4.666;2022-08-19T11:45:05;988.00;;;886.72;;
53036;SDS011;38924;52.134;4.666;2022-08-19T11:47:30;989.05;;;882.85;;
53036;SDS011;38924;52.134;4.666;2022-08-19T11:49:56;904.92;;;811.65;;
53036;SDS011;38924;52.134;4.666;2022-08-19T11:52:26;943.40;;;849.75;;
53036;SDS011;38924;52.134;4.666;2022-08-19T11:54:52;913.78;;;820.35;;
53036;SDS011;38924;52.134;4.666;2022-08-19T11:57:17;907.70;;;813.65;;
53036;SDS011;38924;52.134;4.666;2022-08-19T11:59:48;944.20;;;848.75;;
53036;SDS011;38924;52.134;4.666;2022-08-19T12:02:14;909.40;;;817.42;;
53036;SDS011;38924;52.134;4.666;2022-08-19T12:04:40;987.33;;;884.75;;
53036;SDS011;38924;52.134;4.666;2022-08-19T12:07:06;1008.33;;;899.10;;
53036;SDS011;38924;52.134;4.666;2022-08-19T12:09:32;953.22;;;855.08;;
53036;SDS011;38924;52.134;4.666;2022-08-19T12:12:00;962.15;;;865.17;;
53036;SDS011;38924;52.134;4.666;2022-08-19T12:14:27;896.25;;;804.33;;
53036;SDS011;38924;52.134;4.666;2022-08-19T12:16:53;928.83;;;835.80;;
53036;SDS011;38924;52.134;4.666;2022-08-19T12:19:22;1014.25;;;906.42;;
53036;SDS011;38924;52.134;4.666;2022-08-19T12:21:47;962.58;;;865.17;;
53036;SDS011;38924;52.134;4.666;2022-08-19T12:24:13;1003.63;;;898.35;;
53036;SDS011;38924;52.134;4.666;2022-08-19T12:26:39;970.25;;;871.70;;
53036;SDS011;38924;52.134;4.666;2022-08-19T12:29:05;1021.40;;;913.80;;
53036;SDS011;38924;52.134;4.666;2022-08-19T12:31:30;969.20;;;866.65;;
53036;SDS011;38924;52.134;4.666;2022-08-19T12:33:57;1035.40;;;927.70;;
53036;SDS011;38924;52.134;4.666;2022-08-19T12:36:23;920.17;;;825.95;;
53036;SDS011;38924;52.134;4.666;2022-08-19T12:38:49;956.97;;;857.58;;
53036;SDS011;38924;52.134;4.666;2022-08-19T12:41:15;908.80;;;816.80;;
53036;SDS011;38924;52.134;4.666;2022-08-19T12:43:43;905.75;;;813.80;;
53036;SDS011;38924;52.134;4.666;2022-08-19T12:46:12;932.80;;;835.50;;
53036;SDS011;38924;52.134;4.666;2022-08-19T12:48:38;1031.80;;;919.63;;
53036;SDS011;38924;52.134;4.666;2022-08-19T12:51:08;1014.42;;;906.83;;
53036;SDS011;38924;52.134;4.666;2022-08-19T12:53:34;1042.65;;;929.75;;
53036;SDS011;38924;52.134;4.666;2022-08-19T12:56:00;1019.90;;;907.53;;
53036;SDS011;38924;52.134;4.666;2022-08-19T12:58:26;1001.45;;;891.92;;
53036;SDS011;38924;52.134;4.666;2022-08-19T13:00:57;1017.90;;;908.28;;
53036;SDS011;38924;52.134;4.666;2022-08-19T13:03:23;1046.15;;;928.25;;
53036;SDS011;38924;52.134;4.666;2022-08-19T13:05:54;1055.43;;;940.08;;
53036;SDS011;38924;52.134;4.666;2022-08-19T13:08:20;1065.53;;;953.65;;
53036;SDS011;38924;52.134;4.666;2022-08-19T13:10:46;1050.03;;;935.22;;
53036;SDS011;38924;52.134;4.666;2022-08-19T13:13:12;1085.03;;;967.03;;
53036;SDS011;38924;52.134;4.666;2022-08-19T13:15:39;1081.13;;;966.80;;
53036;SDS011;38924;52.134;4.666;2022-08-19T13:18:06;999.80;;;890.25;;
53036;SDS011;38924;52.134;4.666;2022-08-19T13:20:31;1042.25;;;928.95;;
53036;SDS011;38924;52.134;4.666;2022-08-19T13:22:57;1088.28;;;972.55;;
53036;SDS011;38924;52.134;4.666;2022-08-19T13:25:23;1032.72;;;921.17;;
53036;SDS011;38924;52.134;4.666;2022-08-19T13:27:49;1047.72;;;937.60;;
53036;SDS011;38924;52.134;4.666;2022-08-19T13:30:16;1090.22;;;971.20;;
53036;SDS011;38924;52.134;4.666;2022-08-19T13:33:00;1096.88;;;978.75;;
53036;SDS011;38924;52.134;4.666;2022-08-19T13:38:10;1063.07;;;950.50;;
53036;SDS011;38924;52.134;4.666;2022-08-19T13:40:36;1041.63;;;928.97;;
53036;SDS011;38924;52.134;4.666;2022-08-19T13:43:03;1025.72;;;916.28;;
53036;SDS011;38924;52.134;4.666;2022-08-19T13:45:31;1064.93;;;952.72;;
53036;SDS011;38924;52.134;4.666;2022-08-19T13:47:59;1074.18;;;958.38;;
53036;SDS011;38924;52.134;4.666;2022-08-19T13:50:26;1087.93;;;968.25;;
53036;SDS011;38924;52.134;4.666;2022-08-19T13:52:53;1061.68;;;948.53;;
53036;SDS011;38924;52.134;4.666;2022-08-19T13:55:19;1074.75;;;962.60;;
53036;SDS011;38924;52.134;4.666;2022-08-19T13:57:45;1040.13;;;935.28;;
53036;SDS011;38924;52.134;4.666;2022-08-19T14:00:14;1041.07;;;930.08;;
53036;SDS011;38924;52.134;4.666;2022-08-19T14:02:40;1079.15;;;965.55;;
53036;SDS011;38924;52.134;4.666;2022-08-19T14:05:07;1057.80;;;948.58;;
53036;SDS011;38924;52.134;4.666;2022-08-19T14:07:35;1059.95;;;950.33;;
53036;SDS011;38924;52.134;4.666;2022-08-19T14:10:02;1085.15;;;973.05;;
53036;SDS011;38924;52.134;4.666;2022-08-19T14:12:28;1076.85;;;962.60;;